createdAt,value
2022-10-11T00:00:20.023Z,100561.41
2022-10-11T00:02:51.930Z,100562.31
2022-10-11T00:05:24.006Z,100570.13
2022-10-11T00:07:55.355Z,100570.22
2022-10-11T00:10:26.666Z,100560.69
2022-10-11T00:12:57.670Z,100565.99
2022-10-11T00:15:28.864Z,100555.57
2022-10-11T00:18:04.473Z,100553.89
2022-10-11T00:20:32.642Z,100549.58
2022-10-11T00:23:03.899Z,100555.69
2022-10-11T00:25:35.042Z,100549.66
2022-10-11T00:28:06.256Z,100551.42
2022-10-11T00:30:37.330Z,100544.54
2022-10-11T00:33:08.268Z,100546.34
2022-10-11T00:35:42.094Z,100546.34
2022-10-11T00:38:13.435Z,100541.13
2022-10-11T00:40:44.746Z,100546.27
2022-10-11T00:43:21.742Z,100542.83
2022-10-11T00:46:03.188Z,100539.33
2022-10-11T00:48:46.106Z,100541.96
2022-10-11T00:51:22.881Z,100540.25
2022-10-11T00:53:54.734Z,100542.91
2022-10-11T00:56:28.303Z,100542.11
2022-10-11T00:59:01.013Z,100536.95
2022-10-11T01:01:32.164Z,100539.58
2022-10-11T01:04:04.111Z,100539.61
2022-10-11T01:06:35.998Z,100548.30
2022-10-11T01:09:07.646Z,100535.33
2022-10-11T01:11:41.511Z,100543.20
2022-10-11T01:14:21.052Z,100542.44
2022-10-11T01:16:58.378Z,100539.05
2022-10-11T01:19:51.668Z,100539.97
2022-10-11T01:22:45.119Z,100540.87
2022-10-11T01:25:39.301Z,100543.47
2022-10-11T01:28:28.140Z,100546.88
2022-10-11T01:31:02.295Z,100543.41
2022-10-11T01:33:39.036Z,100539.95
2022-10-11T01:36:27.867Z,100540.87
2022-10-11T01:39:07.429Z,100539.97
2022-10-11T01:41:50.187Z,100536.47
2022-10-11T01:44:23.121Z,100541.68
2022-10-11T01:46:55.286Z,100538.16
2022-10-11T01:49:26.576Z,100537.34
2022-10-11T01:52:00.792Z,100541.68
2022-10-11T01:54:56.959Z,100540.00
2022-10-11T01:57:28.356Z,100540.02
2022-10-11T02:00:17.273Z,100542.66
2022-10-11T02:03:12.129Z,100532.27
2022-10-11T02:05:54.861Z,100533.95
2022-10-11T02:08:50.014Z,100540.92
2022-10-11T02:11:27.068Z,100536.55
2022-10-11T02:14:12.959Z,100534.81
2022-10-11T02:16:46.824Z,100535.69
2022-10-11T02:19:20.776Z,100534.79
2022-10-11T02:21:55.032Z,100539.13
2022-10-11T02:24:38.108Z,100543.50
2022-10-11T02:27:10.896Z,100535.73
2022-10-11T02:29:45.454Z,100545.37
2022-10-11T02:32:18.431Z,100546.23
2022-10-11T02:34:55.144Z,100541.91
2022-10-11T02:37:40.867Z,100542.81
2022-10-11T02:40:23.886Z,100540.26
2022-10-11T02:43:01.465Z,100537.77
2022-10-11T02:45:37.996Z,100533.58
2022-10-11T02:48:11.699Z,100533.63
2022-10-11T02:50:44.251Z,100544.09
2022-10-11T02:53:15.906Z,100550.20
2022-10-11T02:55:47.592Z,100546.80
2022-10-11T02:58:18.815Z,100541.64
2022-10-11T03:00:49.775Z,100550.31
2022-10-11T03:03:20.862Z,100545.11
2022-10-11T03:05:51.887Z,100542.41
2022-10-11T03:08:22.912Z,100550.19
2022-10-11T03:10:54.103Z,100544.98
2022-10-11T03:13:25.202Z,100544.09
2022-10-11T03:16:03.363Z,100549.27
2022-10-11T03:18:30.131Z,100544.91
2022-10-11T03:21:01.711Z,100542.31
2022-10-11T03:23:32.890Z,100542.33
2022-10-11T03:26:04.483Z,100538.02
2022-10-11T03:28:36.041Z,100531.97
2022-10-11T03:31:07.069Z,100532.81
2022-10-11T03:33:38.249Z,100531.03
2022-10-11T03:36:09.574Z,100536.19
2022-10-11T03:38:40.724Z,100527.43
2022-10-11T03:41:11.827Z,100524.83
2022-10-11T03:43:43.017Z,100530.03
2022-10-11T03:46:14.198Z,100523.91
2022-10-11T03:48:45.411Z,100529.90
2022-10-11T03:51:16.678Z,100529.85
2022-10-11T03:53:47.706Z,100514.23
2022-10-11T03:56:19.343Z,100514.23
2022-10-11T03:58:50.455Z,100509.90
2022-10-11T04:01:21.556Z,100517.68
2022-10-11T04:03:54.026Z,100515.02
2022-10-11T04:06:25.842Z,100508.08
2022-10-11T04:08:57.196Z,100513.26
2022-10-11T04:11:28.289Z,100514.89
2022-10-11T04:13:59.442Z,100507.89
2022-10-11T04:16:30.660Z,100512.98
2022-10-11T04:19:01.845Z,100518.19
2022-10-11T04:21:32.967Z,100517.27
2022-10-11T04:24:04.307Z,100516.34
2022-10-11T04:26:35.493Z,100511.83
2022-10-11T04:29:06.710Z,100516.09
2022-10-11T04:31:37.943Z,100513.34
2022-10-11T04:34:09.647Z,100516.73
2022-10-11T04:36:40.914Z,100512.09
2022-10-11T04:39:13.179Z,100513.70
2022-10-11T04:41:44.603Z,100521.19
2022-10-11T04:44:15.872Z,100508.77
2022-10-11T04:46:47.059Z,100503.48
2022-10-11T04:49:18.305Z,100505.58
2022-10-11T04:51:49.345Z,100504.52
2022-10-11T04:54:20.631Z,100505.67
2022-10-11T04:56:51.719Z,100503.78
2022-10-11T04:59:23.024Z,100503.06
2022-10-11T05:01:54.510Z,100507.38
2022-10-11T05:04:26.092Z,100506.02
2022-10-11T05:06:57.543Z,100503.31
2022-10-11T05:09:28.675Z,100493.02
2022-10-11T05:11:59.727Z,100503.23
2022-10-11T05:14:31.485Z,100491.61
2022-10-11T05:17:02.781Z,100496.04
2022-10-11T05:19:34.074Z,100494.30
2022-10-11T05:22:05.474Z,100492.52
2022-10-11T05:24:36.468Z,100494.29
2022-10-11T05:27:07.537Z,100491.31
2022-10-11T05:29:38.662Z,100490.93
2022-10-11T05:32:09.765Z,100496.20
2022-10-11T05:34:41.033Z,100490.94
2022-10-11T05:37:12.524Z,100488.48
2022-10-11T05:39:44.189Z,100488.00
2022-10-11T05:42:15.266Z,100492.97
2022-10-11T05:44:46.539Z,100488.88
2022-10-11T05:47:17.780Z,100486.83
2022-10-11T05:49:49.029Z,100489.98
2022-10-11T05:52:21.935Z,100480.97
2022-10-11T05:54:53.076Z,100492.98
2022-10-11T05:57:24.345Z,100485.29
2022-10-11T05:59:55.782Z,100478.48
2022-10-11T06:02:26.920Z,100477.06
2022-10-11T06:04:58.247Z,100479.19
2022-10-11T06:07:29.311Z,100481.72
2022-10-11T06:10:00.531Z,100480.52
2022-10-11T06:12:32.624Z,100473.75
2022-10-11T06:15:04.623Z,100469.59
2022-10-11T06:17:35.839Z,100463.13
2022-10-11T06:20:07.790Z,100471.79
2022-10-11T06:22:39.236Z,100465.86
2022-10-11T06:25:11.359Z,100468.34
2022-10-11T06:27:42.368Z,100461.28
2022-10-11T06:30:14.529Z,100470.98
2022-10-11T06:32:45.522Z,100466.02
2022-10-11T06:35:16.850Z,100467.66
2022-10-11T06:37:47.939Z,100467.73
2022-10-11T06:40:19.017Z,100469.67
2022-10-11T06:42:50.779Z,100468.52
2022-10-11T06:45:22.187Z,100477.08
2022-10-11T06:47:53.490Z,100469.52
2022-10-11T06:50:47.062Z,100470.37
2022-10-11T06:52:57.499Z,100473.59
2022-10-11T06:55:28.696Z,100477.59
2022-10-11T06:57:59.762Z,100467.34
2022-10-11T07:00:31.071Z,100462.37
2022-10-11T07:03:02.161Z,100464.36
2022-10-11T07:05:34.812Z,100464.69
2022-10-11T07:08:06.134Z,100452.77
2022-10-11T07:10:37.399Z,100465.33
2022-10-11T07:13:09.923Z,100468.09
2022-10-11T07:15:41.883Z,100469.91
2022-10-11T07:18:13.118Z,100467.22
2022-10-11T07:20:44.468Z,100461.89
2022-10-11T07:23:15.762Z,100459.08
2022-10-11T07:25:47.459Z,100467.73
2022-10-11T07:28:18.801Z,100465.91
2022-10-11T07:30:49.935Z,100463.05
2022-10-11T07:33:21.028Z,100466.48
2022-10-11T07:35:52.539Z,100457.66
2022-10-11T07:38:23.621Z,100454.97
2022-10-11T07:40:55.003Z,100461.09
2022-10-11T07:43:26.171Z,100461.00
2022-10-11T07:45:58.911Z,100450.64
2022-10-11T07:48:30.426Z,100454.04
2022-10-11T07:51:07.068Z,100456.54
2022-10-11T07:53:42.360Z,100452.15
2022-10-11T07:56:15.658Z,100450.22
2022-10-11T07:58:55.506Z,100446.73
2022-10-11T08:01:28.293Z,100450.41
2022-10-11T08:04:00.362Z,100445.03
2022-10-11T08:06:32.969Z,100450.16
2022-10-11T08:09:05.959Z,100448.36
2022-10-11T08:11:38.829Z,100438.64
2022-10-11T08:14:11.588Z,100447.30
2022-10-11T08:16:42.850Z,100449.80
2022-10-11T08:19:14.033Z,100438.08
2022-10-11T08:21:45.798Z,100438.70
2022-10-11T08:24:18.647Z,100436.51
2022-10-11T08:26:50.624Z,100433.40
2022-10-11T08:29:22.120Z,100435.52
2022-10-11T08:31:53.396Z,100428.38
2022-10-11T08:34:24.437Z,100428.55
2022-10-11T08:36:55.600Z,100429.77
2022-10-11T08:39:26.785Z,100425.64
2022-10-11T08:42:03.870Z,100417.98
2022-10-11T08:45:09.488Z,100416.40
2022-10-11T08:47:25.675Z,100413.77
2022-10-11T08:49:57.375Z,100411.94
2022-10-11T08:52:35.076Z,100410.17
2022-10-11T08:55:09.492Z,100406.67
2022-10-11T08:57:43.420Z,100405.73
2022-10-11T09:00:18.274Z,100407.30
2022-10-11T09:03:26.421Z,100397.50
2022-10-11T09:06:17.673Z,100400.06
2022-10-11T09:08:58.392Z,100399.06
2022-10-11T09:11:39.466Z,100389.16
2022-10-11T09:14:17.484Z,100380.95
2022-10-11T09:16:58.575Z,100382.75
2022-10-11T09:20:06.053Z,100380.19
2022-10-11T09:22:42.752Z,100373.92
2022-10-11T09:25:20.809Z,100370.22
2022-10-11T09:28:03.692Z,100370.97
2022-10-11T09:30:34.347Z,100373.53
2022-10-11T09:33:20.749Z,100370.76
2022-10-11T09:35:54.173Z,100374.88
2022-10-11T09:38:44.457Z,100364.20
2022-10-11T09:41:37.454Z,100359.77
2022-10-11T09:44:11.786Z,100355.36
2022-10-11T09:46:44.657Z,100352.66
2022-10-11T09:49:19.818Z,100355.22
2022-10-11T09:51:57.445Z,100339.42
2022-10-11T09:54:40.450Z,100332.36
2022-10-11T09:57:33.261Z,100344.52
2022-10-11T10:00:23.185Z,100328.56
2022-10-11T10:02:58.218Z,100338.95
2022-10-11T10:05:33.082Z,100331.81
2022-10-11T10:08:14.079Z,100331.52
2022-10-11T10:11:02.223Z,100333.20
2022-10-11T10:13:51.957Z,100325.91
2022-10-11T10:16:35.066Z,100320.58
2022-10-11T10:19:10.416Z,100318.80
2022-10-11T10:21:48.406Z,100316.92
2022-10-11T10:24:38.468Z,100311.51
2022-10-11T10:27:24.481Z,100314.14
2022-10-11T10:30:14.802Z,100317.45
2022-10-11T10:33:02.019Z,100307.63
2022-10-11T10:35:45.976Z,100311.02
2022-10-11T10:38:32.948Z,100304.06
2022-10-11T10:41:09.181Z,100280.06
2022-10-11T10:43:44.083Z,100289.95
2022-10-11T10:46:37.169Z,100293.45
2022-10-11T10:49:52.974Z,100296.91
2022-10-11T10:52:17.110Z,100287.23
2022-10-11T10:55:06.746Z,100283.93
2022-10-11T10:57:44.263Z,100282.54
2022-10-11T11:00:21.640Z,100279.12
2022-10-11T11:02:59.973Z,100270.31
2022-10-11T11:05:40.795Z,100272.00
2022-10-11T11:08:32.117Z,100266.47
2022-10-11T11:11:07.194Z,100266.32
2022-10-11T11:13:44.705Z,100266.92
2022-10-11T11:16:19.860Z,100263.45
2022-10-11T11:19:12.855Z,100265.14
2022-10-11T11:21:51.448Z,100259.88
2022-10-11T11:24:35.093Z,100254.61
2022-10-11T11:27:26.763Z,100250.13
2022-10-11T11:30:13.987Z,100244.08
2022-10-11T11:33:07.039Z,100244.08
2022-10-11T11:35:45.601Z,100244.08
2022-10-11T11:38:38.735Z,100234.48
2022-10-11T11:41:22.535Z,100236.95
2022-10-11T11:44:03.257Z,100222.84
2022-10-11T11:46:38.314Z,100220.13
2022-10-11T11:49:20.246Z,100224.38
2022-10-11T11:51:53.898Z,100226.74
2022-10-11T11:54:46.829Z,100216.91
2022-10-11T11:57:27.947Z,100216.72
2022-10-11T12:00:08.819Z,100217.34
2022-10-11T12:02:57.493Z,100218.87
2022-10-11T12:05:33.057Z,100210.61
2022-10-11T12:08:29.285Z,100206.12
2022-10-11T12:11:04.666Z,100211.19
2022-10-11T12:13:39.315Z,100204.81
2022-10-11T12:16:16.424Z,100199.33
2022-10-11T12:18:51.391Z,100199.08
2022-10-11T12:21:38.003Z,100194.47
2022-10-11T12:24:21.936Z,100197.69
2022-10-11T12:26:59.886Z,100191.89
2022-10-11T12:29:51.907Z,100189.23
2022-10-11T12:32:39.672Z,100182.06
2022-10-11T12:35:34.595Z,100180.89
2022-10-11T12:38:16.546Z,100174.52
2022-10-11T12:40:50.829Z,100169.88
2022-10-11T12:43:31.560Z,100160.34
2022-10-11T12:46:31.918Z,100159.55
2022-10-11T12:49:10.148Z,100151.86
2022-10-11T12:51:45.197Z,100151.20
2022-10-11T12:54:32.118Z,100148.22
2022-10-11T12:57:12.437Z,100141.47
2022-10-11T12:59:48.415Z,100140.12
2022-10-11T13:02:32.774Z,100137.80
2022-10-11T13:05:25.735Z,100136.00
2022-10-11T13:08:01.111Z,100139.53
2022-10-11T13:10:39.349Z,100128.53
2022-10-11T13:13:17.813Z,100125.19
2022-10-11T13:15:51.576Z,100122.63
2022-10-11T13:18:25.614Z,100119.89
2022-10-11T13:20:57.681Z,100120.75
2022-10-11T13:23:33.019Z,100115.32
2022-10-11T13:26:05.286Z,100118.95
2022-10-11T13:28:37.975Z,100110.77
2022-10-11T13:31:11.093Z,100109.74
2022-10-11T13:33:46.057Z,100109.91
2022-10-11T13:36:18.626Z,100112.13
2022-10-11T13:38:56.132Z,100117.98
2022-10-11T13:41:30.608Z,100111.55
2022-10-11T13:44:04.182Z,100121.84
2022-10-11T13:46:41.623Z,100124.17
2022-10-11T13:49:34.694Z,100127.80
2022-10-11T13:52:10.062Z,100129.03
2022-10-11T13:55:08.422Z,100130.03
2022-10-11T13:57:46.494Z,100124.33
2022-10-11T14:00:27.325Z,100132.86
2022-10-11T14:03:05.158Z,100126.59
2022-10-11T14:05:41.325Z,100129.86
2022-10-11T14:08:22.853Z,100129.86
2022-10-11T14:10:57.815Z,100130.49
2022-10-11T14:13:50.183Z,100125.77
2022-10-11T14:16:25.339Z,100123.38
2022-10-11T14:19:03.199Z,100132.55
2022-10-11T14:21:48.628Z,100131.09
2022-10-11T14:24:22.741Z,100128.66
2022-10-11T14:26:57.026Z,100130.48
2022-10-11T14:29:32.118Z,100125.27
2022-10-11T14:32:10.132Z,100133.95
2022-10-11T14:34:43.896Z,100132.82
2022-10-11T14:37:18.087Z,100123.89
2022-10-11T14:39:51.062Z,100138.64
2022-10-11T14:42:23.538Z,100134.96
2022-10-11T14:44:55.745Z,100138.23
2022-10-11T14:47:27.932Z,100137.97
2022-10-11T14:50:00.158Z,100135.89
2022-10-11T14:52:32.985Z,100144.39
2022-10-11T14:55:05.438Z,100143.17
2022-10-11T14:57:37.832Z,100146.27
2022-10-11T15:00:18.191Z,100145.08
2022-10-11T15:02:53.089Z,100147.33
2022-10-11T15:05:32.648Z,100144.36
2022-10-11T15:08:02.207Z,100150.83
2022-10-11T15:10:42.049Z,100148.64
2022-10-11T15:13:14.371Z,100157.80
2022-10-11T15:15:47.214Z,100158.17
2022-10-11T15:18:20.969Z,100159.16
2022-10-11T15:20:54.778Z,100162.72
2022-10-11T15:23:26.713Z,100172.36
2022-10-11T15:25:58.948Z,100163.72
2022-10-11T15:28:33.175Z,100159.53
2022-10-11T15:31:05.471Z,100160.59
2022-10-11T15:33:38.553Z,100166.91
2022-10-11T15:36:13.899Z,100164.61
2022-10-11T15:38:47.122Z,100171.09
2022-10-11T15:41:21.031Z,100166.96
2022-10-11T15:43:53.568Z,100171.54
2022-10-11T15:46:25.847Z,100172.59
2022-10-11T15:48:58.175Z,100165.78
2022-10-11T15:51:30.498Z,100166.61
2022-10-11T15:54:03.157Z,100169.30
2022-10-11T15:56:35.542Z,100162.36
2022-10-11T15:59:07.762Z,100166.84
2022-10-11T16:01:40.087Z,100162.64
2022-10-11T16:04:12.189Z,100165.46
2022-10-11T16:06:44.508Z,100168.14
2022-10-11T16:09:16.847Z,100164.82
2022-10-11T16:11:48.990Z,100159.83
2022-10-11T16:14:20.938Z,100166.13
2022-10-11T16:16:52.971Z,100166.34
2022-10-11T16:19:24.972Z,100175.20
2022-10-11T16:21:57.020Z,100159.59
2022-10-11T16:24:29.383Z,100165.82
2022-10-11T16:27:01.311Z,100168.56
2022-10-11T16:29:33.355Z,100164.25
2022-10-11T16:32:05.445Z,100166.06
2022-10-11T16:34:37.707Z,100165.30
2022-10-11T16:37:09.810Z,100169.02
2022-10-11T16:39:42.473Z,100162.27
2022-10-11T16:42:14.791Z,100158.02
2022-10-11T16:44:47.239Z,100159.00
2022-10-11T16:47:19.525Z,100154.80
2022-10-11T16:49:51.568Z,100153.17
2022-10-11T16:52:23.886Z,100154.16
2022-10-11T16:54:56.078Z,100145.55
2022-10-11T16:57:28.071Z,100156.23
2022-10-11T16:59:59.937Z,100151.05
2022-10-11T17:02:33.308Z,100151.17
2022-10-11T17:05:05.969Z,100150.34
2022-10-11T17:07:37.976Z,100152.87
2022-10-11T17:10:10.707Z,100152.10
2022-10-11T17:12:46.542Z,100148.77
2022-10-11T17:15:16.856Z,100146.20
2022-10-11T17:17:48.971Z,100135.84
2022-10-11T17:20:21.224Z,100139.45
2022-10-11T17:22:55.211Z,100142.07
2022-10-11T17:25:28.287Z,100136.02
2022-10-11T17:28:00.433Z,100137.06
2022-10-11T17:30:32.497Z,100133.84
2022-10-11T17:33:05.713Z,100135.75
2022-10-11T17:35:37.689Z,100135.15
2022-10-11T17:38:09.915Z,100135.27
2022-10-11T17:40:41.902Z,100124.85
2022-10-11T17:43:15.889Z,100120.54
2022-10-11T17:45:50.747Z,100122.37
2022-10-11T17:48:23.025Z,100119.82
2022-10-11T17:50:55.531Z,100117.27
2022-10-11T17:53:27.493Z,100118.30
2022-10-11T17:55:59.418Z,100120.11
2022-10-11T17:58:31.635Z,100131.61
2022-10-11T18:01:10.081Z,100123.96
2022-10-11T18:03:42.983Z,100126.74
2022-10-11T18:06:14.992Z,100123.46
2022-10-11T18:08:46.950Z,100125.27
2022-10-11T18:11:21.071Z,100121.98
2022-10-11T18:13:53.979Z,100120.41
2022-10-11T18:16:29.847Z,100115.31
2022-10-11T18:19:04.975Z,100121.43
2022-10-11T18:21:38.071Z,100116.34
2022-10-11T18:24:16.380Z,100115.50
2022-10-11T18:26:48.898Z,100116.47
2022-10-11T18:29:21.001Z,100120.98
2022-10-11T18:31:53.085Z,100118.17
2022-10-11T18:34:25.104Z,100113.80
2022-10-11T18:36:57.045Z,100107.70
2022-10-11T18:39:29.053Z,100111.24
2022-10-11T18:42:02.601Z,100111.41
2022-10-11T18:44:34.600Z,100111.60
2022-10-11T18:47:06.845Z,100110.02
2022-10-11T18:49:38.688Z,100103.30
2022-10-11T18:52:11.509Z,100106.94
2022-10-11T18:54:43.930Z,100096.48
2022-10-11T18:57:15.838Z,100101.66
2022-10-11T18:59:47.844Z,100089.55
2022-10-11T19:02:19.907Z,100095.76
2022-10-11T19:04:53.066Z,100094.11
2022-10-11T19:07:25.266Z,100091.66
2022-10-11T19:09:57.197Z,100090.88
2022-10-11T19:12:29.237Z,100088.31
2022-10-11T19:15:01.889Z,100080.42
2022-10-11T19:17:33.977Z,100072.74
2022-10-11T19:20:06.331Z,100068.53
2022-10-11T19:22:38.452Z,100075.65
2022-10-11T19:25:10.472Z,100068.78
2022-10-11T19:27:42.587Z,100077.45
2022-10-11T19:30:14.683Z,100065.36
2022-10-11T19:32:46.576Z,100070.69
2022-10-11T19:35:20.031Z,100070.63
2022-10-11T19:37:52.116Z,100068.83
2022-10-11T19:40:23.976Z,100072.33
2022-10-11T19:42:55.981Z,100074.16
2022-10-11T19:45:28.076Z,100071.66
2022-10-11T19:48:00.088Z,100074.27
2022-10-11T19:50:32.053Z,100069.04
2022-10-11T19:53:04.018Z,100076.20
2022-10-11T19:55:36.695Z,100073.88
2022-10-11T19:58:08.840Z,100076.64
2022-10-11T20:00:40.807Z,100081.14
2022-10-11T20:03:12.714Z,100084.00
2022-10-11T20:05:44.845Z,100077.31
2022-10-11T20:08:17.198Z,100080.02
2022-10-11T20:10:49.076Z,100075.77
2022-10-11T20:13:21.095Z,100081.23
2022-10-11T20:15:58.343Z,100074.54
2022-10-11T20:18:31.022Z,100072.98
2022-10-11T20:21:06.164Z,100069.64
2022-10-11T20:23:38.356Z,100065.48
2022-10-11T20:26:13.614Z,100063.70
2022-10-11T20:28:46.556Z,100059.30
2022-10-11T20:31:26.004Z,100065.43
2022-10-11T20:34:00.980Z,100063.70
2022-10-11T20:36:33.870Z,100066.44
2022-10-11T20:39:07.361Z,100061.27
2022-10-11T20:41:40.148Z,100063.87
2022-10-11T20:44:13.330Z,100063.01
2022-10-11T20:46:45.206Z,100065.80
2022-10-11T20:49:20.150Z,100064.28
2022-10-11T20:51:52.096Z,100053.98
2022-10-11T20:54:24.090Z,100061.91
2022-10-11T20:56:57.672Z,100055.95
2022-10-11T20:59:29.759Z,100057.70
2022-10-11T21:02:01.727Z,100054.34
2022-10-11T21:04:33.859Z,100057.95
2022-10-11T21:07:05.901Z,100058.05
2022-10-11T21:09:37.937Z,100052.00
2022-10-11T21:12:09.895Z,100059.12
2022-10-11T21:14:42.267Z,100053.09
2022-10-11T21:17:15.186Z,100049.79
2022-10-11T21:19:47.119Z,100048.18
2022-10-11T21:22:18.980Z,100043.92
2022-10-11T21:24:51.190Z,100043.97
2022-10-11T21:27:24.862Z,100044.01
2022-10-11T21:29:57.182Z,100042.36
2022-10-11T21:32:29.356Z,100045.05
2022-10-11T21:35:01.568Z,100045.14
2022-10-11T21:37:34.163Z,100051.27
2022-10-11T21:40:06.653Z,100047.95
2022-10-11T21:42:39.052Z,100041.88
2022-10-11T21:45:11.253Z,100039.44
2022-10-11T21:47:46.399Z,100039.48
2022-10-11T21:50:18.434Z,100043.03
2022-10-11T21:52:50.548Z,100045.69
2022-10-11T21:55:22.414Z,100033.65
2022-10-11T21:57:54.270Z,100036.30
2022-10-11T22:00:26.311Z,100035.59
2022-10-11T22:02:58.368Z,100038.28
2022-10-11T22:05:30.406Z,100031.46
2022-10-11T22:08:02.460Z,100036.76
2022-10-11T22:10:35.144Z,100034.06
2022-10-11T22:13:07.079Z,100027.28
2022-10-11T22:15:38.889Z,100036.87
2022-10-11T22:18:10.815Z,100031.66
2022-10-11T22:20:42.729Z,100034.36
2022-10-11T22:23:14.801Z,100031.80
2022-10-11T22:25:47.192Z,100033.66
2022-10-11T22:28:19.571Z,100026.70
2022-10-11T22:30:51.636Z,100032.00
2022-10-11T22:33:23.567Z,100031.28
2022-10-11T22:35:57.775Z,100033.02
2022-10-11T22:38:30.087Z,100031.45
2022-10-11T22:41:02.041Z,100026.23
2022-10-11T22:43:34.439Z,100030.66
2022-10-11T22:46:07.442Z,100022.84
2022-10-11T22:48:39.471Z,100028.05
2022-10-11T22:51:11.366Z,100023.72
2022-10-11T22:53:43.492Z,100021.23
2022-10-11T22:56:15.459Z,100020.41
2022-10-11T22:58:47.415Z,100016.14
2022-10-11T23:01:19.578Z,100018.78
2022-10-11T23:03:51.621Z,100018.83
2022-10-11T23:06:23.801Z,100016.27
2022-10-11T23:08:55.878Z,100023.23
2022-10-11T23:11:28.504Z,100023.00
2022-10-11T23:14:00.634Z,100012.47
2022-10-11T23:16:32.496Z,100006.31
2022-10-11T23:19:04.598Z,100018.42
2022-10-11T23:21:36.701Z,100016.77
2022-10-11T23:24:08.844Z,100016.58
2022-10-11T23:26:40.847Z,100013.30
2022-10-11T23:29:12.779Z,100018.66
2022-10-11T23:31:46.668Z,100012.67
2022-10-11T23:34:18.903Z,100011.88
2022-10-11T23:36:51.128Z,100016.27
2022-10-11T23:39:23.011Z,100011.88
2022-10-11T23:41:55.290Z,99998.91
2022-10-11T23:44:27.255Z,99999.84
2022-10-11T23:46:59.241Z,100001.62
2022-10-11T23:49:31.162Z,100005.22
2022-10-11T23:52:03.351Z,100001.81
2022-10-11T23:54:35.178Z,100006.16
2022-10-11T23:57:07.368Z,100006.83
2022-10-11T23:59:39.582Z,100004.11
